Time;durP1;ratioP1;P1;durP2;ratioP2;P2;SDS_P1;SDS_P2;PMS_P1;PMS_P2;Temp;Humidity;BMP_temperature;BMP_pressure;BME280_temperature;BME280_humidity;BME280_pressure;Samples;Min_cycle;Max_cycle;Signal;HPM_P1;HPM_P2
2024/03/30 00:00:31;;;;;;;;;;;19.70;41.60;;;;;;8356714;28;19974;-56
2024/03/30 00:04:32;;;;;;;;;;;19.70;41.60;;;;;;8356020;28;20293;-56
2024/03/30 00:08:32;;;;;;;;;;;19.60;41.40;;;;;;8338223;28;19958;-56
2024/03/30 00:12:33;;;;;;;;;;;19.60;42.00;;;;;;8355953;27;19913;-56
2024/03/30 00:16:33;;;;;;;;;;;19.40;43.10;;;;;;8354867;28;19913;-56
2024/03/30 00:20:38;;;;;;;;;;;19.30;43.20;;;;;;8355735;27;20323;-56
2024/03/30 00:24:39;;;;;;;;;;;19.40;42.60;;;;;;8355682;28;20006;-57
2024/03/30 00:28:39;;;;;;;;;;;19.50;42.20;;;;;;8355378;28;19932;-56
2024/03/30 00:32:40;;;;;;;;;;;19.60;41.90;;;;;;8355785;28;19917;-56
2024/03/30 00:36:41;;;;;;;;;;;19.60;41.90;;;;;;8355452;28;20127;-57
2024/03/30 00:40:41;;;;;;;;;;;19.60;41.60;;;;;;8355263;28;19908;-56
2024/03/30 00:44:42;;;;;;;;;;;19.60;41.50;;;;;;8355410;28;20370;-55
2024/03/30 00:48:42;;;;;;;;;;;19.60;41.40;;;;;;8355312;28;19917;-55
2024/03/30 00:52:43;;;;;;;;;;;19.70;41.40;;;;;;8355103;28;19913;-57
2024/03/30 00:56:43;;;;;;;;;;;19.60;41.20;;;;;;8355445;28;19965;-55
2024/03/30 01:00:44;;;;;;;;;;;19.50;41.80;;;;;;8337591;28;19913;-57
2024/03/30 01:04:45;;;;;;;;;;;19.40;43.00;;;;;;8355147;28;20378;-55
2024/03/30 01:08:45;;;;;;;;;;;19.30;42.90;;;;;;8354876;28;19977;-57
2024/03/30 01:12:46;;;;;;;;;;;19.40;42.30;;;;;;8354697;27;19913;-57
2024/03/30 01:16:47;;;;;;;;;;;19.50;41.90;;;;;;8354986;28;19909;-57
2024/03/30 01:20:50;;;;;;;;;;;19.50;41.70;;;;;;8320255;28;19917;-57
2024/03/30 01:24:51;;;;;;;;;;;19.60;41.60;;;;;;8321565;28;20561;-56
2024/03/30 01:28:53;;;;;;;;;;;19.60;41.40;;;;;;8323731;28;19944;-56
2024/03/30 01:32:54;;;;;;;;;;;19.60;41.30;;;;;;8326134;28;19910;-56
2024/03/30 01:36:54;;;;;;;;;;;19.60;41.20;;;;;;8327350;28;19913;-56
2024/03/30 01:40:55;;;;;;;;;;;19.60;41.10;;;;;;8326943;28;19921;-55
2024/03/30 01:44:56;;;;;;;;;;;19.60;41.00;;;;;;8327661;28;19914;-55
2024/03/30 01:48:56;;;;;;;;;;;19.50;41.70;;;;;;8326920;28;19917;-56
2024/03/30 01:52:58;;;;;;;;;;;19.30;42.80;;;;;;8326876;28;20247;-56
2024/03/30 01:57:00;;;;;;;;;;;19.30;42.60;;;;;;8326483;28;20370;-56
2024/03/30 02:01:00;;;;;;;;;;;19.30;42.10;;;;;;8326688;28;20328;-56
2024/03/30 02:05:01;;;;;;;;;;;19.50;41.80;;;;;;8326502;28;19913;-56
2024/03/30 02:09:03;;;;;;;;;;;19.50;41.50;;;;;;8326183;28;19913;-56
2024/03/30 02:13:05;;;;;;;;;;;19.50;41.30;;;;;;8326374;28;19917;-56
2024/03/30 02:17:05;;;;;;;;;;;19.50;41.10;;;;;;8326774;28;19909;-56
2024/03/30 02:21:06;;;;;;;;;;;19.60;41.10;;;;;;8358906;28;19913;-56
2024/03/30 02:25:07;;;;;;;;;;;19.60;41.00;;;;;;8359130;28;20262;-56
2024/03/30 02:29:10;;;;;;;;;;;19.60;40.90;;;;;;8358688;28;19921;-55
2024/03/30 02:33:10;;;;;;;;;;;19.60;40.80;;;;;;8358833;28;20340;-56
2024/03/30 02:37:11;;;;;;;;;;;19.50;41.60;;;;;;8358685;28;19913;-55
2024/03/30 02:41:12;;;;;;;;;;;19.30;42.60;;;;;;8357614;28;19962;-56
2024/03/30 02:45:12;;;;;;;;;;;19.30;42.30;;;;;;8358366;28;19913;-57
2024/03/30 02:49:14;;;;;;;;;;;19.40;41.80;;;;;;8358192;28;19916;-55
2024/03/30 02:53:14;;;;;;;;;;;19.40;41.50;;;;;;8358052;28;19916;-56
2024/03/30 02:57:15;;;;;;;;;;;19.50;41.20;;;;;;8358054;28;20429;-56
2024/03/30 03:01:16;;;;;;;;;;;19.50;41.10;;;;;;8358258;28;19919;-56
2024/03/30 03:05:16;;;;;;;;;;;19.50;41.00;;;;;;8357862;28;19913;-56
2024/03/30 03:09:17;;;;;;;;;;;19.50;40.80;;;;;;8339939;28;19917;-56
2024/03/30 03:13:17;;;;;;;;;;;19.50;40.70;;;;;;8357569;27;19966;-55
2024/03/30 03:17:18;;;;;;;;;;;19.50;40.70;;;;;;8357585;28;20377;-56
2024/03/30 03:21:18;;;;;;;;;;;19.50;40.60;;;;;;8357545;28;19917;-55
2024/03/30 03:25:19;;;;;;;;;;;19.40;41.50;;;;;;8357809;28;19913;-54
2024/03/30 03:29:19;;;;;;;;;;;19.20;42.50;;;;;;8357953;28;19993;-55
2024/03/30 03:33:20;;;;;;;;;;;19.20;42.10;;;;;;8357731;28;19960;-55
2024/03/30 03:37:21;;;;;;;;;;;19.30;41.60;;;;;;8356944;28;19917;-56
2024/03/30 03:41:21;;;;;;;;;;;19.40;41.30;;;;;;8356892;28;20263;-56
2024/03/30 03:45:22;;;;;;;;;;;19.50;41.10;;;;;;8356644;28;19917;-56
2024/03/30 03:49:23;;;;;;;;;;;19.50;41.00;;;;;;8356504;28;19917;-56
2024/03/30 03:53:24;;;;;;;;;;;19.50;40.80;;;;;;8356568;28;19917;-57
2024/03/30 03:57:25;;;;;;;;;;;19.50;40.70;;;;;;8356638;28;19912;-58
2024/03/30 04:01:25;;;;;;;;;;;19.50;40.60;;;;;;8356367;28;19909;-56
2024/03/30 04:05:26;;;;;;;;;;;19.50;40.50;;;;;;8356110;28;19961;-58
2024/03/30 04:09:28;;;;;;;;;;;19.50;40.40;;;;;;8356118;28;20278;-56
2024/03/30 04:13:29;;;;;;;;;;;19.40;41.50;;;;;;8305671;28;19921;-57
2024/03/30 04:17:32;;;;;;;;;;;19.30;42.20;;;;;;8322863;28;20004;-57
2024/03/30 04:21:32;;;;;;;;;;;19.30;41.80;;;;;;8323027;28;19959;-56
2024/03/30 04:25:33;;;;;;;;;;;19.30;41.40;;;;;;8322887;28;20007;-56
2024/03/30 04:29:33;;;;;;;;;;;19.40;41.20;;;;;;8322678;28;20406;-57
2024/03/30 04:33:34;;;;;;;;;;;19.40;40.90;;;;;;8323113;28;19921;-56
2024/03/30 04:37:35;;;;;;;;;;;19.50;40.80;;;;;;8322925;28;20347;-56
2024/03/30 04:41:36;;;;;;;;;;;19.50;40.60;;;;;;8324477;27;20090;-57
2024/03/30 04:45:36;;;;;;;;;;;19.50;40.50;;;;;;8337435;28;20434;-57
2024/03/30 04:49:37;;;;;;;;;;;19.50;40.40;;;;;;8355434;28;19920;-57
2024/03/30 04:53:37;;;;;;;;;;;19.50;40.30;;;;;;8355088;28;20016;-56
2024/03/30 04:57:38;;;;;;;;;;;19.50;40.30;;;;;;8355310;28;20297;-56
2024/03/30 05:01:40;;;;;;;;;;;19.40;41.40;;;;;;8355057;28;19919;-56
2024/03/30 05:05:42;;;;;;;;;;;19.20;42.20;;;;;;8359856;28;19959;-55
2024/03/30 05:09:42;;;;;;;;;;;19.20;41.70;;;;;;8360928;28;19913;-56
2024/03/30 05:13:43;;;;;;;;;;;19.30;41.30;;;;;;8361182;27;19919;-56
2024/03/30 05:17:43;;;;;;;;;;;19.40;41.00;;;;;;8360288;27;20015;-56
2024/03/30 05:21:44;;;;;;;;;;;19.40;40.80;;;;;;8343149;28;19920;-56
2024/03/30 05:25:45;;;;;;;;;;;19.40;40.50;;;;;;8360354;28;19912;-56
2024/03/30 05:29:45;;;;;;;;;;;19.50;40.50;;;;;;8360184;28;20282;-56
2024/03/30 05:33:46;;;;;;;;;;;19.50;40.40;;;;;;8360170;28;19956;-56
2024/03/30 05:37:47;;;;;;;;;;;19.50;40.30;;;;;;8359942;28;19925;-56
2024/03/30 05:41:47;;;;;;;;;;;19.50;40.20;;;;;;8360175;28;19917;-56
2024/03/30 05:45:48;;;;;;;;;;;19.50;40.20;;;;;;8359848;28;19912;-57
2024/03/30 05:49:49;;;;;;;;;;;19.30;41.40;;;;;;8359482;28;19959;-56
2024/03/30 05:53:49;;;;;;;;;;;19.10;42.10;;;;;;8359609;28;19913;-56
2024/03/30 05:57:51;;;;;;;;;;;19.20;41.50;;;;;;8359670;28;19917;-55
2024/03/30 06:01:51;;;;;;;;;;;19.30;41.10;;;;;;8359442;28;19943;-56
2024/03/30 06:05:52;;;;;;;;;;;19.40;40.80;;;;;;8359753;28;19921;-56
2024/03/30 06:09:52;;;;;;;;;;;19.40;40.60;;;;;;8359175;28;20648;-56
2024/03/30 06:13:53;;;;;;;;;;;19.40;40.40;;;;;;8358586;28;19909;-56
2024/03/30 06:17:53;;;;;;;;;;;19.50;40.30;;;;;;8358454;27;20611;-55
2024/03/30 06:21:54;;;;;;;;;;;19.50;40.10;;;;;;8358933;28;20053;-56
2024/03/30 06:25:55;;;;;;;;;;;19.50;40.00;;;;;;8358805;28;20437;-55
2024/03/30 06:29:55;;;;;;;;;;;19.50;39.80;;;;;;8359662;28;19920;-54
2024/03/30 06:33:56;;;;;;;;;;;19.60;39.80;;;;;;8358615;28;19920;-55
2024/03/30 06:37:56;;;;;;;;;;;19.50;41.00;;;;;;8358716;28;19913;-56
2024/03/30 06:46:16;;;;;;;;;;;19.50;40.90;;;;;;8358150;28;20293;-56
2024/03/30 06:50:17;;;;;;;;;;;19.50;40.40;;;;;;8358037;28;19913;-55
2024/03/30 06:54:20;;;;;;;;;;;19.50;40.10;;;;;;8358092;28;19913;-56
2024/03/30 06:58:21;;;;;;;;;;;19.60;39.90;;;;;;8358999;28;19916;-55
2024/03/30 07:02:21;;;;;;;;;;;19.60;39.80;;;;;;8357846;28;20011;-56
2024/03/30 07:06:22;;;;;;;;;;;19.60;39.70;;;;;;8357867;28;19921;-57
2024/03/30 07:10:22;;;;;;;;;;;19.60;39.60;;;;;;8357774;28;19913;-57
2024/03/30 07:14:24;;;;;;;;;;;19.70;39.60;;;;;;8357676;27;19920;-56
2024/03/30 07:18:24;;;;;;;;;;;19.60;39.40;;;;;;8357488;28;20004;-57
2024/03/30 07:22:25;;;;;;;;;;;19.60;39.80;;;;;;8357661;28;19986;-56
2024/03/30 07:26:25;;;;;;;;;;;19.50;40.90;;;;;;8357060;28;20445;-56
2024/03/30 07:30:26;;;;;;;;;;;19.50;41.10;;;;;;8357207;28;20026;-56
2024/03/30 07:34:26;;;;;;;;;;;19.50;40.60;;;;;;8357056;28;20109;-58
2024/03/30 07:38:31;;;;;;;;;;;19.60;40.20;;;;;;8357018;28;19908;-56
2024/03/30 07:42:32;;;;;;;;;;;19.60;40.00;;;;;;8356891;27;19920;-55
2024/03/30 07:46:32;;;;;;;;;;;19.70;39.80;;;;;;8357648;28;19917;-56
2024/03/30 07:50:33;;;;;;;;;;;19.70;39.70;;;;;;8356623;28;19913;-57
2024/03/30 07:54:33;;;;;;;;;;;19.70;39.60;;;;;;8356644;28;20378;-57
2024/03/30 07:58:34;;;;;;;;;;;19.70;39.40;;;;;;8356502;28;19913;-56
2024/03/30 08:02:35;;;;;;;;;;;19.70;39.40;;;;;;8356462;28;19936;-57
2024/03/30 08:06:35;;;;;;;;;;;19.70;39.30;;;;;;8356361;28;19924;-56
2024/03/30 08:10:36;;;;;;;;;;;19.70;39.90;;;;;;8356346;28;20352;-56
2024/03/30 08:14:36;;;;;;;;;;;19.50;40.80;;;;;;8355808;27;20393;-55
2024/03/30 08:18:37;;;;;;;;;;;19.40;41.00;;;;;;8337824;27;19925;-57
2024/03/30 08:22:38;;;;;;;;;;;19.50;40.40;;;;;;8356043;28;20430;-57
2024/03/30 08:26:38;;;;;;;;;;;19.50;40.10;;;;;;8355828;28;20011;-57
2024/03/30 08:30:39;;;;;;;;;;;19.60;39.90;;;;;;8355667;28;19920;-57
2024/03/30 08:34:39;;;;;;;;;;;19.60;39.70;;;;;;8355768;28;19919;-53
2024/03/30 08:38:40;;;;;;;;;;;19.70;39.60;;;;;;8354585;28;19913;-53
2024/03/30 08:42:41;;;;;;;;;;;19.60;39.40;;;;;;8355326;27;19996;-54
2024/03/30 08:46:41;;;;;;;;;;;19.70;39.40;;;;;;8337556;28;20370;-52
2024/03/30 08:50:42;;;;;;;;;;;19.60;39.30;;;;;;8337446;28;19912;-54
2024/03/30 08:54:42;;;;;;;;;;;19.70;39.30;;;;;;8355141;28;20327;-53
2024/03/30 08:58:43;;;;;;;;;;;19.60;40.00;;;;;;8355018;28;19962;-52
2024/03/30 09:02:43;;;;;;;;;;;19.50;40.90;;;;;;8355131;28;20263;-54
2024/03/30 09:06:44;;;;;;;;;;;19.40;40.90;;;;;;8355022;28;20023;-53
2024/03/30 09:10:45;;;;;;;;;;;19.50;40.30;;;;;;8354924;28;20312;-52
2024/03/30 09:14:45;;;;;;;;;;;19.60;40.00;;;;;;8354562;28;19913;-53
2024/03/30 09:18:46;;;;;;;;;;;19.60;39.80;;;;;;8354593;27;19921;-52
2024/03/30 09:22:47;;;;;;;;;;;19.60;39.60;;;;;;8354864;28;19909;-53
2024/03/30 09:26:48;;;;;;;;;;;19.60;39.50;;;;;;8354466;28;20441;-52
2024/03/30 09:30:49;;;;;;;;;;;19.60;39.30;;;;;;8354377;28;19913;-53
2024/03/30 09:34:49;;;;;;;;;;;19.70;39.30;;;;;;8354486;28;19932;-52
2024/03/30 09:38:50;;;;;;;;;;;19.70;39.20;;;;;;8354226;28;19913;-53
2024/03/30 09:42:51;;;;;;;;;;;19.70;39.20;;;;;;8354212;27;19917;-56
2024/03/30 09:46:52;;;;;;;;;;;19.60;40.00;;;;;;8354153;28;19923;-56
2024/03/30 09:50:53;;;;;;;;;;;19.50;40.90;;;;;;8357910;28;19917;-55
2024/03/30 09:54:56;;;;;;;;;;;19.40;40.80;;;;;;8359733;28;19909;-55
2024/03/30 09:58:58;;;;;;;;;;;19.50;40.30;;;;;;8359459;28;19909;-55
2024/03/30 10:02:59;;;;;;;;;;;19.50;40.00;;;;;;8359706;28;19913;-56
2024/03/30 10:07:00;;;;;;;;;;;19.60;39.80;;;;;;8359518;28;19917;-56
2024/03/30 10:11:04;;;;;;;;;;;19.60;39.60;;;;;;8359383;28;19909;-56
2024/03/30 10:15:05;;;;;;;;;;;19.60;39.40;;;;;;8359167;27;20386;-54
2024/03/30 10:19:06;;;;;;;;;;;19.60;39.30;;;;;;8358976;27;20365;-56
2024/03/30 10:23:07;;;;;;;;;;;19.70;39.30;;;;;;8359125;28;19913;-56
2024/03/30 10:27:07;;;;;;;;;;;19.70;39.20;;;;;;8341051;28;20019;-56
2024/03/30 10:31:08;;;;;;;;;;;19.60;39.10;;;;;;8358867;28;19944;-56
2024/03/30 10:35:09;;;;;;;;;;;19.60;40.00;;;;;;8358727;28;19916;-56
2024/03/30 10:39:09;;;;;;;;;;;19.40;40.90;;;;;;8358791;28;19999;-56
2024/03/30 10:43:10;;;;;;;;;;;19.40;40.70;;;;;;8358252;27;19913;-56
2024/03/30 10:47:11;;;;;;;;;;;19.50;40.70;;;;;;8358437;28;19960;-55
2024/03/30 10:51:11;;;;;;;;;;;19.60;39.90;;;;;;8358504;28;19913;-56
2024/03/30 10:55:12;;;;;;;;;;;19.50;39.60;;;;;;8358155;28;19916;-57
2024/03/30 10:59:13;;;;;;;;;;;19.60;39.50;;;;;;8357988;28;20342;-56
2024/03/30 11:03:15;;;;;;;;;;;19.70;39.50;;;;;;8357118;28;19956;-54
2024/03/30 11:07:16;;;;;;;;;;;19.70;39.30;;;;;;8358014;28;20362;-56
2024/03/30 11:11:17;;;;;;;;;;;19.60;39.20;;;;;;8357605;28;20530;-56
2024/03/30 11:15:18;;;;;;;;;;;19.60;39.00;;;;;;8323652;28;19914;-54
2024/03/30 11:19:22;;;;;;;;;;;19.60;39.00;;;;;;8324576;28;19967;-57
2024/03/30 11:23:26;;;;;;;;;;;19.60;40.10;;;;;;8324634;28;19941;-57
2024/03/30 11:27:30;;;;;;;;;;;19.40;40.90;;;;;;8324385;28;19917;-57
2024/03/30 11:31:31;;;;;;;;;;;19.50;40.50;;;;;;8324425;28;19913;-57
2024/03/30 11:35:33;;;;;;;;;;;19.50;40.10;;;;;;8324410;28;19920;-56
2024/03/30 11:39:40;;;;;;;;;;;19.50;39.70;;;;;;8324024;28;19909;-56
2024/03/30 11:43:47;;;;;;;;;;;19.60;39.60;;;;;;8309081;28;20384;-57
2024/03/30 11:47:47;;;;;;;;;;;19.60;39.40;;;;;;8323918;28;19949;-57
2024/03/30 11:51:49;;;;;;;;;;;19.60;39.20;;;;;;8322819;28;19913;-57
2024/03/30 11:55:51;;;;;;;;;;;19.60;39.10;;;;;;8323894;28;20279;-57
2024/03/30 11:59:54;;;;;;;;;;;19.70;39.10;;;;;;8323792;28;19913;-56
2024/03/30 12:03:54;;;;;;;;;;;19.70;39.00;;;;;;8323529;28;19935;-56
2024/03/30 12:08:03;;;;;;;;;;;19.70;39.00;;;;;;8323616;28;19917;-56
2024/03/30 12:12:09;;;;;;;;;;;19.50;40.30;;;;;;8328631;28;19920;-56
2024/03/30 12:16:10;;;;;;;;;;;19.40;41.00;;;;;;8356032;28;20302;-56
2024/03/30 12:20:11;;;;;;;;;;;19.40;40.40;;;;;;8355959;28;20003;-56
2024/03/30 12:24:13;;;;;;;;;;;19.50;40.00;;;;;;8355892;28;19913;-55
2024/03/30 12:28:14;;;;;;;;;;;19.60;39.80;;;;;;8356053;28;20393;-56
2024/03/30 12:32:14;;;;;;;;;;;19.60;39.50;;;;;;8355737;28;20319;-56
2024/03/30 12:36:15;;;;;;;;;;;19.60;39.30;;;;;;8356675;28;19908;-56
2024/03/30 12:40:16;;;;;;;;;;;19.60;39.10;;;;;;8355688;28;19913;-56
2024/03/30 12:44:17;;;;;;;;;;;19.70;39.10;;;;;;8355468;28;19957;-56
2024/03/30 12:48:17;;;;;;;;;;;19.70;39.00;;;;;;8355104;28;19921;-56
2024/03/30 12:52:18;;;;;;;;;;;19.60;38.90;;;;;;8355310;28;19962;-56
2024/03/30 12:56:23;;;;;;;;;;;19.70;39.00;;;;;;8337850;28;19909;-56
2024/03/30 13:00:24;;;;;;;;;;;19.50;40.30;;;;;;8355237;28;19959;-56
2024/03/30 13:04:28;;;;;;;;;;;19.40;40.70;;;;;;8354972;28;19919;-56
2024/03/30 13:08:29;;;;;;;;;;;19.50;40.20;;;;;;8354896;28;19919;-56
2024/03/30 13:12:30;;;;;;;;;;;19.50;39.70;;;;;;8355058;27;19909;-56
2024/03/30 13:16:31;;;;;;;;;;;19.60;39.50;;;;;;8337212;28;19913;-56
2024/03/30 13:20:31;;;;;;;;;;;19.60;39.30;;;;;;8354529;27;19921;-56
2024/03/30 13:24:32;;;;;;;;;;;19.60;39.20;;;;;;8356533;28;19963;-55
2024/03/30 13:28:32;;;;;;;;;;;19.60;39.00;;;;;;8360312;28;19921;-56
2024/03/30 13:32:35;;;;;;;;;;;19.70;39.00;;;;;;8360282;28;20432;-56
2024/03/30 13:36:36;;;;;;;;;;;19.70;39.00;;;;;;8360500;28;19916;-55
2024/03/30 13:40:37;;;;;;;;;;;19.70;38.90;;;;;;8360030;28;19909;-55
2024/03/30 13:44:38;;;;;;;;;;;19.60;39.10;;;;;;8359837;28;20004;-56
2024/03/30 13:48:38;;;;;;;;;;;19.40;40.40;;;;;;8359768;28;20293;-56
2024/03/30 13:52:39;;;;;;;;;;;19.30;40.80;;;;;;8359823;28;19913;-57
2024/03/30 13:56:39;;;;;;;;;;;19.40;40.30;;;;;;8359964;28;19917;-56
2024/03/30 14:00:41;;;;;;;;;;;19.40;39.80;;;;;;8359451;28;19917;-56
2024/03/30 14:04:41;;;;;;;;;;;19.50;39.60;;;;;;8359338;28;19917;-56
2024/03/30 14:08:42;;;;;;;;;;;19.60;39.40;;;;;;8359505;28;19938;-55
2024/03/30 14:12:43;;;;;;;;;;;19.60;39.20;;;;;;8359273;27;19927;-56
2024/03/30 14:16:43;;;;;;;;;;;19.60;39.10;;;;;;8341372;28;19913;-56
2024/03/30 14:20:44;;;;;;;;;;;19.60;39.00;;;;;;8358875;28;19920;-56
2024/03/30 14:24:44;;;;;;;;;;;19.70;39.10;;;;;;8359098;28;19913;-56
2024/03/30 14:28:45;;;;;;;;;;;19.60;38.90;;;;;;8359309;28;19920;-54
2024/03/30 14:32:45;;;;;;;;;;;19.70;39.30;;;;;;8358856;28;19913;-56
2024/03/30 14:36:46;;;;;;;;;;;19.50;40.40;;;;;;8339812;28;19959;-55
2024/03/30 14:40:47;;;;;;;;;;;19.30;40.60;;;;;;8359393;28;20270;-54
2024/03/30 14:44:50;;;;;;;;;;;19.40;40.10;;;;;;8358304;28;19920;-56
2024/03/30 14:48:51;;;;;;;;;;;19.50;39.80;;;;;;8358072;28;19916;-56
2024/03/30 14:52:52;;;;;;;;;;;19.50;39.50;;;;;;8340564;28;19913;-56
2024/03/30 14:56:52;;;;;;;;;;;19.60;39.30;;;;;;8358339;28;19913;-55
2024/03/30 15:00:53;;;;;;;;;;;19.60;39.20;;;;;;8357833;28;19916;-55
2024/03/30 15:04:53;;;;;;;;;;;19.60;39.10;;;;;;8357843;28;19968;-56
2024/03/30 15:08:54;;;;;;;;;;;19.60;39.00;;;;;;8357822;28;20377;-55
2024/03/30 15:12:54;;;;;;;;;;;19.60;38.90;;;;;;8357675;27;19920;-56
2024/03/30 15:16:55;;;;;;;;;;;19.60;38.90;;;;;;8357629;28;20363;-56
2024/03/30 15:20:56;;;;;;;;;;;19.60;39.40;;;;;;8339437;28;19967;-56
2024/03/30 15:24:57;;;;;;;;;;;19.30;40.40;;;;;;8357482;28;19913;-55
2024/03/30 15:28:57;;;;;;;;;;;19.30;40.60;;;;;;8357224;28;19921;-56
2024/03/30 15:32:58;;;;;;;;;;;19.30;40.10;;;;;;8357166;28;19935;-56
2024/03/30 15:36:58;;;;;;;;;;;19.50;39.70;;;;;;8357492;28;19958;-51
2024/03/30 15:40:59;;;;;;;;;;;19.50;39.50;;;;;;8357035;28;19913;-53
2024/03/30 15:45:00;;;;;;;;;;;19.50;39.30;;;;;;8356359;27;19956;-53
2024/03/30 15:49:00;;;;;;;;;;;19.60;39.20;;;;;;8338777;28;20271;-50
2024/03/30 15:53:02;;;;;;;;;;;19.60;40.70;;;;;;8329763;28;19914;-49
2024/03/30 15:57:03;;;;;;;;;;;19.50;41.70;;;;;;8363705;27;20391;-56
2024/03/30 16:01:04;;;;;;;;;;;19.50;41.90;;;;;;8396016;27;20251;-55
2024/03/30 16:05:05;;;;;;;;;;;19.40;41.10;;;;;;8528747;27;19963;-56
2024/03/30 16:09:07;;;;;;;;;;;19.40;41.30;;;;;;8356220;28;19913;-56
2024/03/30 16:13:08;;;;;;;;;;;19.20;42.30;;;;;;8356110;27;19913;-56
2024/03/30 16:17:08;;;;;;;;;;;19.20;42.30;;;;;;8508845;27;20009;-51
2024/03/30 16:21:09;;;;;;;;;;;19.30;41.60;;;;;;8529354;27;19946;-55
2024/03/30 16:25:10;;;;;;;;;;;19.30;41.30;;;;;;8518077;27;19919;-53
2024/03/30 16:29:10;;;;;;;;;;;19.40;40.90;;;;;;8354909;27;20281;-58
2024/03/30 16:33:11;;;;;;;;;;;19.40;40.80;;;;;;8355738;28;20424;-50
2024/03/30 16:37:12;;;;;;;;;;;19.40;40.50;;;;;;8355390;28;19942;-54
2024/03/30 16:41:12;;;;;;;;;;;19.40;40.30;;;;;;8355479;28;20565;-57
2024/03/30 16:45:13;;;;;;;;;;;19.40;40.40;;;;;;8357236;27;20315;-57
2024/03/30 16:49:13;;;;;;;;;;;19.50;40.30;;;;;;8354477;28;19924;-55
2024/03/30 16:53:14;;;;;;;;;;;19.60;40.00;;;;;;8355038;28;19913;-59
2024/03/30 16:57:15;;;;;;;;;;;19.60;40.30;;;;;;8355150;28;19977;-54
2024/03/30 17:01:16;;;;;;;;;;;19.50;41.10;;;;;;8359854;28;20285;-54
2024/03/30 17:05:17;;;;;;;;;;;19.50;41.10;;;;;;8361175;28;19912;-48
2024/03/30 17:09:18;;;;;;;;;;;19.60;42.00;;;;;;8361012;28;19956;-47
2024/03/30 17:13:18;;;;;;;;;;;19.70;41.10;;;;;;8361130;27;19920;-49
2024/03/30 17:17:19;;;;;;;;;;;19.70;41.70;;;;;;8360584;27;20323;-57
2024/03/30 17:21:20;;;;;;;;;;;19.80;40.80;;;;;;8360724;28;19912;-52
2024/03/30 17:25:20;;;;;;;;;;;19.80;41.00;;;;;;8330413;28;19913;-53
2024/03/30 17:29:22;;;;;;;;;;;19.80;40.10;;;;;;8327435;28;20290;-49
2024/03/30 17:33:23;;;;;;;;;;;19.90;40.00;;;;;;8327527;28;20373;-51
2024/03/30 17:37:23;;;;;;;;;;;19.90;40.10;;;;;;8327557;28;20223;-50
2024/03/30 17:41:26;;;;;;;;;;;20.00;40.00;;;;;;8327647;28;19916;-49
2024/03/30 17:45:27;;;;;;;;;;;19.90;40.70;;;;;;8360189;28;19939;-50
2024/03/30 17:49:28;;;;;;;;;;;19.80;41.80;;;;;;8359219;28;19946;-52
2024/03/30 17:53:32;;;;;;;;;;;19.80;41.80;;;;;;8359421;28;19913;-53
2024/03/30 17:57:33;;;;;;;;;;;19.80;41.30;;;;;;8360365;28;19908;-55
2024/03/30 18:01:33;;;;;;;;;;;19.80;40.80;;;;;;8359377;28;19939;-54
2024/03/30 18:05:44;;;;;;;;;;;19.80;40.50;;;;;;8359991;28;19913;-55
2024/03/30 18:09:44;;;;;;;;;;;19.90;40.30;;;;;;8359276;28;19917;-54
2024/03/30 18:13:45;;;;;;;;;;;19.90;40.10;;;;;;8359129;27;19913;-55
2024/03/30 18:17:45;;;;;;;;;;;19.80;40.00;;;;;;8359006;27;19969;-54
2024/03/30 18:21:46;;;;;;;;;;;19.80;39.90;;;;;;8359352;28;19913;-55
2024/03/30 18:25:46;;;;;;;;;;;19.80;39.70;;;;;;8358895;28;19913;-54
2024/03/30 18:29:49;;;;;;;;;;;19.80;39.60;;;;;;8357965;28;20320;-54
2024/03/30 18:33:49;;;;;;;;;;;19.60;40.60;;;;;;8359117;28;19913;-56
2024/03/30 18:37:50;;;;;;;;;;;19.50;41.50;;;;;;8340898;28;19952;-56
2024/03/30 18:41:51;;;;;;;;;;;19.50;41.10;;;;;;8358648;27;20396;-54
2024/03/30 18:45:52;;;;;;;;;;;19.60;40.50;;;;;;8358696;28;19924;-53
2024/03/30 18:49:52;;;;;;;;;;;19.60;40.20;;;;;;8358219;28;20394;-55
2024/03/30 18:53:53;;;;;;;;;;;19.60;40.10;;;;;;8340687;28;20348;-54
2024/03/30 18:57:53;;;;;;;;;;;19.70;39.80;;;;;;8358187;28;19913;-53
2024/03/30 19:01:54;;;;;;;;;;;19.70;39.70;;;;;;8358311;28;20358;-55
2024/03/30 19:05:58;;;;;;;;;;;19.70;39.50;;;;;;8358109;28;19920;-51
2024/03/30 19:09:59;;;;;;;;;;;19.70;39.40;;;;;;8357909;28;20046;-50
2024/03/30 19:14:00;;;;;;;;;;;19.80;39.40;;;;;;8357757;28;20389;-51
2024/03/30 19:18:01;;;;;;;;;;;19.70;39.20;;;;;;8357726;27;20287;-50
2024/03/30 19:22:01;;;;;;;;;;;19.60;40.50;;;;;;8356997;28;19912;-50
2024/03/30 19:26:02;;;;;;;;;;;19.40;41.20;;;;;;8357522;28;19917;-52
2024/03/30 19:30:03;;;;;;;;;;;19.50;40.70;;;;;;8357199;28;20409;-50
2024/03/30 19:34:06;;;;;;;;;;;19.50;40.20;;;;;;8357671;28;19985;-51
2024/03/30 19:38:07;;;;;;;;;;;19.60;39.90;;;;;;8357141;28;20425;-52
2024/03/30 19:42:08;;;;;;;;;;;19.70;39.70;;;;;;8357115;27;20338;-51
2024/03/30 19:46:09;;;;;;;;;;;19.70;39.60;;;;;;8356861;28;19909;-50
2024/03/30 19:50:09;;;;;;;;;;;19.70;39.40;;;;;;8356718;28;19916;-50
2024/03/30 19:54:10;;;;;;;;;;;19.70;39.30;;;;;;8356697;28;19920;-48
2024/03/30 19:58:10;;;;;;;;;;;19.70;39.20;;;;;;8356654;28;20306;-51
2024/03/30 20:02:11;;;;;;;;;;;19.70;39.20;;;;;;8357235;28;19916;-49
2024/03/30 20:06:12;;;;;;;;;;;19.70;39.20;;;;;;8356134;28;20059;-50
2024/03/30 20:10:12;;;;;;;;;;;19.50;40.40;;;;;;8356292;28;20315;-51
2024/03/30 20:14:13;;;;;;;;;;;19.40;41.10;;;;;;8356650;27;19995;-54
2024/03/30 20:18:13;;;;;;;;;;;19.50;40.50;;;;;;8355880;28;20282;-53
2024/03/30 20:22:14;;;;;;;;;;;19.50;40.10;;;;;;8356287;28;19939;-54
2024/03/30 20:26:14;;;;;;;;;;;19.60;39.80;;;;;;8355986;28;19912;-54
2024/03/30 20:30:15;;;;;;;;;;;19.60;39.60;;;;;;8355940;28;19962;-54
2024/03/30 20:34:16;;;;;;;;;;;19.70;39.40;;;;;;8354552;28;19917;-56
2024/03/30 20:38:17;;;;;;;;;;;19.70;39.30;;;;;;8355393;28;19912;-53
2024/03/30 20:42:18;;;;;;;;;;;19.60;39.20;;;;;;8337796;27;19909;-52
2024/03/30 20:46:20;;;;;;;;;;;19.70;39.10;;;;;;8355313;28;19908;-56
2024/03/30 20:50:21;;;;;;;;;;;19.70;39.10;;;;;;8355251;28;19916;-54
2024/03/30 20:54:21;;;;;;;;;;;19.70;39.10;;;;;;8355285;28;19913;-55
2024/03/30 20:58:22;;;;;;;;;;;19.50;40.50;;;;;;8355098;28;19924;-55
2024/03/30 21:02:24;;;;;;;;;;;19.40;41.00;;;;;;8354883;28;20271;-54
2024/03/30 21:06:25;;;;;;;;;;;19.50;40.50;;;;;;8337787;28;19913;-55
2024/03/30 21:10:25;;;;;;;;;;;19.40;41.40;;;;;;8354096;28;19924;-54
2024/03/30 21:14:26;;;;;;;;;;;19.30;42.90;;;;;;8354031;28;19936;-56
2024/03/30 21:18:27;;;;;;;;;;;19.30;42.50;;;;;;8354562;27;20384;-55
2024/03/30 21:22:30;;;;;;;;;;;19.50;41.90;;;;;;8354690;28;20016;-56
2024/03/30 21:26:30;;;;;;;;;;;19.60;41.50;;;;;;8354628;28;19921;-54
2024/03/30 21:30:31;;;;;;;;;;;19.60;41.00;;;;;;8354512;28;19909;-54
2024/03/30 21:34:32;;;;;;;;;;;19.60;40.80;;;;;;8354529;28;20425;-53
2024/03/30 21:38:32;;;;;;;;;;;19.70;40.60;;;;;;8354286;28;19924;-52
2024/03/30 21:42:33;;;;;;;;;;;19.70;40.60;;;;;;8354214;27;20579;-53
2024/03/30 21:46:33;;;;;;;;;;;19.60;41.80;;;;;;8357359;28;19928;-54
2024/03/30 21:50:34;;;;;;;;;;;19.50;42.20;;;;;;8360019;28;19916;-54
2024/03/30 21:54:35;;;;;;;;;;;19.50;41.60;;;;;;8359809;28;19963;-53
2024/03/30 21:58:36;;;;;;;;;;;19.60;41.10;;;;;;8359576;28;19909;-54
2024/03/30 22:02:36;;;;;;;;;;;19.60;40.70;;;;;;8359682;28;19934;-53
2024/03/30 22:06:37;;;;;;;;;;;19.60;40.50;;;;;;8359269;28;19917;-53
2024/03/30 22:10:38;;;;;;;;;;;19.70;40.30;;;;;;8359584;28;19920;-54
2024/03/30 22:14:38;;;;;;;;;;;19.70;40.20;;;;;;8359269;27;19913;-53
2024/03/30 22:18:39;;;;;;;;;;;19.70;40.10;;;;;;8358947;28;20393;-54
2024/03/30 22:22:39;;;;;;;;;;;19.70;40.00;;;;;;8359326;28;19930;-54
2024/03/30 22:26:40;;;;;;;;;;;19.70;39.90;;;;;;8358869;28;19924;-52
2024/03/30 22:30:41;;;;;;;;;;;19.70;40.30;;;;;;8358781;28;19981;-53
2024/03/30 22:34:41;;;;;;;;;;;19.50;41.50;;;;;;8359103;28;19913;-57
2024/03/30 22:38:42;;;;;;;;;;;19.40;42.40;;;;;;8358685;28;19917;-57
2024/03/30 22:42:43;;;;;;;;;;;19.40;41.20;;;;;;8358848;27;19917;-56
2024/03/30 22:46:43;;;;;;;;;;;19.50;40.80;;;;;;8358512;28;20355;-55
2024/03/30 22:50:44;;;;;;;;;;;19.60;40.60;;;;;;8358147;28;19944;-55
2024/03/30 22:54:45;;;;;;;;;;;19.60;40.30;;;;;;8358225;28;19915;-55
2024/03/30 22:58:46;;;;;;;;;;;19.60;40.20;;;;;;8357137;28;19909;-55
2024/03/30 23:02:47;;;;;;;;;;;19.60;40.10;;;;;;8358026;28;19962;-56
2024/03/30 23:06:48;;;;;;;;;;;19.60;40.10;;;;;;8358150;28;19917;-57
2024/03/30 23:10:57;;;;;;;;;;;19.70;39.90;;;;;;8357698;28;19916;-56
2024/03/30 23:14:58;;;;;;;;;;;19.60;39.80;;;;;;8357616;28;20011;-56
2024/03/30 23:18:59;;;;;;;;;;;19.60;40.40;;;;;;8357454;27;19921;-56
2024/03/30 23:22:59;;;;;;;;;;;19.40;41.40;;;;;;8357520;28;20266;-56